createdAt,value
2018-11-03T00:01:09.786Z,13.80
2018-11-03T00:03:38.349Z,10.37
2018-11-03T00:06:19.656Z,13.17
2018-11-03T00:08:48.020Z,12.60
2018-11-03T00:11:16.945Z,10.83
2018-11-03T00:13:45.637Z,11.40
2018-11-03T00:16:18.166Z,9.67
2018-11-03T00:18:48.568Z,11.10
2018-11-03T00:21:20.412Z,8.57
2018-11-03T00:23:49.121Z,8.80
2018-11-03T00:26:23.847Z,8.10
2018-11-03T00:28:52.514Z,8.67
2018-11-03T00:31:34.938Z,8.37
2018-11-03T00:34:03.891Z,9.17
2018-11-03T00:36:32.511Z,10.13
2018-11-03T00:39:01.154Z,11.50
2018-11-03T00:41:31.085Z,10.83
2018-11-03T00:43:59.331Z,8.30
2018-11-03T00:46:40.632Z,7.97
2018-11-03T00:49:09.154Z,8.73
2018-11-03T00:51:37.796Z,8.27
2018-11-03T00:54:06.446Z,7.87
2018-11-03T00:56:38.452Z,7.40
2018-11-03T00:59:06.788Z,7.93
2018-11-03T01:01:40.189Z,7.50
2018-11-03T01:04:09.117Z,7.87
2018-11-03T01:06:44.797Z,9.93
2018-11-03T01:09:14.282Z,8.03
2018-11-03T01:11:48.445Z,8.43
2018-11-03T01:14:17.165Z,8.30
2018-11-03T01:16:49.067Z,8.03
2018-11-03T01:19:17.997Z,8.80
2018-11-03T01:21:51.373Z,8.77
2018-11-03T01:24:20.339Z,7.93
2018-11-03T01:26:54.078Z,8.10
2018-11-03T01:29:22.721Z,8.20
2018-11-03T01:31:58.608Z,8.77
2018-11-03T01:34:27.140Z,7.60
2018-11-03T01:37:00.636Z,7.93
2018-11-03T01:39:29.044Z,8.77
2018-11-03T01:42:02.670Z,7.87
2018-11-03T01:44:31.085Z,7.63
2018-11-03T01:47:01.666Z,8.73
2018-11-03T01:49:34.153Z,8.17
2018-11-03T01:52:02.458Z,9.10
2018-11-03T01:54:31.050Z,8.60
2018-11-03T01:56:59.949Z,10.07
2018-11-03T01:59:28.808Z,8.97
2018-11-03T02:01:57.071Z,10.53
2018-11-03T02:04:25.613Z,9.20
2018-11-03T02:06:55.279Z,9.03
2018-11-03T02:09:23.908Z,10.57
2018-11-03T02:11:52.807Z,7.93
2018-11-03T02:14:22.554Z,8.33
2018-11-03T02:16:51.141Z,10.00
2018-11-03T02:19:29.236Z,9.63
2018-11-03T02:21:57.905Z,9.40
2018-11-03T02:24:26.679Z,8.17
2018-11-03T02:26:56.025Z,8.83
2018-11-03T02:29:29.904Z,8.73
2018-11-03T02:31:58.526Z,10.43
2018-11-03T02:34:39.796Z,10.30
2018-11-03T02:37:08.429Z,9.67
2018-11-03T02:39:36.740Z,9.67
2018-11-03T02:42:05.828Z,10.50
2018-11-03T02:44:37.694Z,10.50
2018-11-03T02:47:06.915Z,9.30
2018-11-03T02:49:48.581Z,8.73
2018-11-03T02:52:17.193Z,8.10
2018-11-03T02:54:45.899Z,8.80
2018-11-03T02:57:14.463Z,8.80
2018-11-03T02:59:45.803Z,9.27
2018-11-03T03:02:14.417Z,10.67
2018-11-03T03:04:47.785Z,9.33
2018-11-03T03:07:16.488Z,8.97
2018-11-03T03:09:49.921Z,8.97
2018-11-03T03:12:18.477Z,8.17
2018-11-03T03:14:51.023Z,8.17
2018-11-03T03:17:19.362Z,9.13
2018-11-03T03:19:48.262Z,9.07
2018-11-03T03:22:16.853Z,8.50
2018-11-03T03:24:45.099Z,8.80
2018-11-03T03:27:13.980Z,9.07
2018-11-03T03:29:42.302Z,8.27
2018-11-03T03:32:10.895Z,7.90
2018-11-03T03:34:39.412Z,9.27
2018-11-03T03:37:11.873Z,9.00
2018-11-03T03:39:40.484Z,10.57
2018-11-03T03:42:21.539Z,9.87
2018-11-03T03:44:50.177Z,9.70
2018-11-03T03:47:18.874Z,8.23
2018-11-03T03:49:47.768Z,7.80
2018-11-03T03:52:19.414Z,8.20
2018-11-03T03:54:48.015Z,8.57
2018-11-03T03:57:19.916Z,7.97
2018-11-03T03:59:48.528Z,8.67
2018-11-03T04:02:29.716Z,11.20
2018-11-03T04:04:58.260Z,8.77
2018-11-03T04:07:26.551Z,9.00
2018-11-03T04:09:55.254Z,8.83
2018-11-03T04:12:28.286Z,8.43
2018-11-03T04:14:56.598Z,8.87
2018-11-03T04:17:29.657Z,8.53
2018-11-03T04:19:58.245Z,8.50
2018-11-03T04:22:32.535Z,8.23
2018-11-03T04:25:01.185Z,9.00
2018-11-03T04:27:35.590Z,7.60
2018-11-03T04:30:06.054Z,7.63
2018-11-03T04:32:38.604Z,7.63
2018-11-03T04:35:07.034Z,8.00
2018-11-03T04:37:49.604Z,8.37
2018-11-03T04:40:17.901Z,8.43
2018-11-03T04:42:46.170Z,8.43
2018-11-03T04:45:14.898Z,8.17
2018-11-03T04:47:47.077Z,7.97
2018-11-03T04:50:15.700Z,9.00
2018-11-03T04:52:49.009Z,9.37
2018-11-03T04:55:17.790Z,8.33
2018-11-03T04:57:50.557Z,8.43
2018-11-03T05:00:19.504Z,8.00
2018-11-03T05:02:51.160Z,9.17
2018-11-03T05:05:20.776Z,8.93
2018-11-03T05:07:49.287Z,8.33
2018-11-03T05:10:17.615Z,9.20
2018-11-03T05:12:45.901Z,8.67
2018-11-03T05:15:14.918Z,8.20
2018-11-03T05:17:43.499Z,8.20
2018-11-03T05:20:12.180Z,7.83
2018-11-03T05:22:41.136Z,8.37
2018-11-03T05:25:12.888Z,8.53
2018-11-03T05:27:41.549Z,9.43
2018-11-03T05:30:22.593Z,8.10
2018-11-03T05:32:51.219Z,7.40
2018-11-03T05:35:19.789Z,7.77
2018-11-03T05:37:48.109Z,8.23
2018-11-03T05:40:29.268Z,9.10
2018-11-03T05:42:58.144Z,8.90
2018-11-03T05:45:26.779Z,8.43
2018-11-03T05:47:55.421Z,8.57
2018-11-03T05:50:23.940Z,8.13
2018-11-03T05:52:52.648Z,8.73
2018-11-03T05:55:25.901Z,8.23
2018-11-03T05:57:54.832Z,8.13
2018-11-03T06:00:28.028Z,8.17
2018-11-03T06:02:58.039Z,7.60
2018-11-03T06:05:32.332Z,7.80
2018-11-03T06:08:00.919Z,8.43
2018-11-03T06:10:34.236Z,7.57
2018-11-03T06:13:03.113Z,7.70
2018-11-03T06:15:36.590Z,8.97
2018-11-03T06:18:05.647Z,8.80
2018-11-03T06:20:40.727Z,9.20
2018-11-03T06:23:09.507Z,9.57
2018-11-03T06:25:49.056Z,9.50
2018-11-03T06:28:17.677Z,10.13
2018-11-03T06:30:46.970Z,10.73
2018-11-03T06:33:15.250Z,9.73
2018-11-03T06:35:48.377Z,9.57
2018-11-03T06:38:16.942Z,8.93
2018-11-03T06:40:50.516Z,9.53
2018-11-03T06:43:18.887Z,9.73
2018-11-03T06:45:51.784Z,10.07
2018-11-03T06:48:22.609Z,9.47
2018-11-03T06:50:51.284Z,9.27
2018-11-03T06:53:20.284Z,9.93
2018-11-03T06:55:48.953Z,8.93
2018-11-03T06:58:17.602Z,9.47
2018-11-03T07:00:46.167Z,9.10
2018-11-03T07:03:14.469Z,9.90
2018-11-03T07:05:42.740Z,8.23
2018-11-03T07:08:12.238Z,8.93
2018-11-03T07:10:40.933Z,10.03
2018-11-03T07:13:22.492Z,9.47
2018-11-03T07:15:51.485Z,13.57
2018-11-03T07:18:20.347Z,11.20
2018-11-03T07:20:48.958Z,13.30
2018-11-03T07:23:19.130Z,13.33
2018-11-03T07:25:47.729Z,9.27
2018-11-03T07:28:28.418Z,8.27
2018-11-03T07:30:57.472Z,9.00
2018-11-03T07:33:26.128Z,7.37
2018-11-03T07:35:54.800Z,8.53
2018-11-03T07:38:25.976Z,12.53
2018-11-03T07:40:54.692Z,6.27
2018-11-03T07:43:28.958Z,7.07
2018-11-03T07:45:57.839Z,8.93
2018-11-03T07:48:40.559Z,6.90
2018-11-03T07:51:09.559Z,10.37
2018-11-03T07:53:37.860Z,9.87
2018-11-03T07:56:06.206Z,10.33
2018-11-03T07:58:35.761Z,10.13
2018-11-03T08:01:05.592Z,8.63
2018-11-03T08:03:48.032Z,9.33
2018-11-03T08:06:17.062Z,10.47
2018-11-03T08:08:47.700Z,9.47
2018-11-03T08:11:16.427Z,8.00
2018-11-03T08:13:46.393Z,7.37
2018-11-03T08:16:15.107Z,7.80
2018-11-03T08:18:56.721Z,8.00
2018-11-03T08:21:25.315Z,8.20
2018-11-03T08:23:53.907Z,10.17
2018-11-03T08:26:22.594Z,10.80
2018-11-03T08:28:52.913Z,9.73
2018-11-03T08:31:22.015Z,8.60
2018-11-03T08:34:00.461Z,9.70
2018-11-03T08:36:29.461Z,9.97
2018-11-03T08:39:00.440Z,10.03
2018-11-03T08:41:29.089Z,8.77
2018-11-03T08:44:02.757Z,8.00
2018-11-03T08:46:31.408Z,8.57
2018-11-03T08:49:04.786Z,14.43
2018-11-03T08:51:33.900Z,10.27
2018-11-03T08:54:08.007Z,8.77
2018-11-03T08:56:37.465Z,10.70
2018-11-03T08:59:11.531Z,9.93
2018-11-03T09:01:39.869Z,10.57
2018-11-03T09:04:13.734Z,10.90
2018-11-03T09:06:42.888Z,15.93
2018-11-03T09:09:17.643Z,12.13
2018-11-03T09:11:46.632Z,16.57
2018-11-03T09:14:28.569Z,22.10
2018-11-03T09:16:57.207Z,12.27
2018-11-03T09:19:26.282Z,11.10
2018-11-03T09:21:55.637Z,10.60
2018-11-03T09:24:24.537Z,9.43
2018-11-03T09:26:53.210Z,9.97
2018-11-03T09:29:35.132Z,8.67
2018-11-03T09:32:03.979Z,8.83
2018-11-03T09:34:32.680Z,8.63
2018-11-03T09:37:01.456Z,8.80
2018-11-03T09:39:32.300Z,7.70
2018-11-03T09:42:00.599Z,7.90
2018-11-03T09:44:34.648Z,8.03
2018-11-03T09:47:03.196Z,7.30
2018-11-03T09:49:38.827Z,6.53
2018-11-03T09:52:07.112Z,6.93
2018-11-03T09:54:48.584Z,7.37
2018-11-03T09:57:17.655Z,8.87
2018-11-03T09:59:47.125Z,10.43
2018-11-03T10:02:15.468Z,8.83
2018-11-03T10:04:46.623Z,9.47
2018-11-03T10:07:15.319Z,8.93
2018-11-03T10:09:50.935Z,8.97
2018-11-03T10:12:19.209Z,9.67
2018-11-03T10:15:00.814Z,12.60
2018-11-03T10:17:32.414Z,14.77
2018-11-03T10:20:00.715Z,14.00
2018-11-03T10:22:29.715Z,11.37
2018-11-03T10:24:59.842Z,10.00
2018-11-03T10:27:28.169Z,11.50
2018-11-03T10:30:09.298Z,10.63
2018-11-03T10:32:38.676Z,12.13
2018-11-03T10:35:08.666Z,13.57
2018-11-03T10:37:38.421Z,14.37
2018-11-03T10:40:10.116Z,14.43
2018-11-03T10:42:38.769Z,13.83
2018-11-03T10:45:21.125Z,13.97
2018-11-03T10:47:50.294Z,13.37
2018-11-03T10:50:19.276Z,12.70
2018-11-03T10:52:47.900Z,12.67
2018-11-03T10:55:18.990Z,12.80
2018-11-03T10:57:47.280Z,11.87
2018-11-03T11:00:24.227Z,12.37
2018-11-03T11:02:58.816Z,12.13
2018-11-03T11:05:32.803Z,12.90
2018-11-03T11:08:08.087Z,15.13
2018-11-03T11:10:41.992Z,14.87
2018-11-03T11:13:14.936Z,12.27
2018-11-03T11:15:43.494Z,12.57
2018-11-03T11:18:12.108Z,11.97
2018-11-03T11:20:41.241Z,11.33
2018-11-03T11:23:10.383Z,10.67
2018-11-03T11:25:39.332Z,10.10
2018-11-03T11:28:09.071Z,11.37
2018-11-03T11:33:18.573Z,9.40
2018-11-03T11:35:48.222Z,9.33
2018-11-03T11:38:16.527Z,9.20
2018-11-03T11:40:45.459Z,9.20
2018-11-03T11:43:14.889Z,10.03
2018-11-03T11:45:43.508Z,8.20
2018-11-03T11:48:11.827Z,8.17
2018-11-03T11:50:45.227Z,7.10
2018-11-03T11:53:13.547Z,7.17
2018-11-03T11:55:46.679Z,7.23
2018-11-03T11:58:15.745Z,10.33
2018-11-03T12:00:50.017Z,12.17
2018-11-03T12:03:18.813Z,10.40
2018-11-03T12:05:52.152Z,10.83
2018-11-03T12:08:20.839Z,9.57
2018-11-03T12:10:49.381Z,9.17
2018-11-03T12:13:18.018Z,9.50
2018-11-03T12:15:46.669Z,9.87
2018-11-03T12:18:15.268Z,11.43
2018-11-03T12:20:43.917Z,10.43
2018-11-03T12:23:12.543Z,9.83
2018-11-03T12:25:41.155Z,9.73
2018-11-03T12:28:09.817Z,9.27
2018-11-03T12:30:38.453Z,7.87
2018-11-03T12:33:19.874Z,6.77
2018-11-03T12:35:48.434Z,7.03
2018-11-03T12:38:17.115Z,6.10
2018-11-03T12:40:45.761Z,6.67
2018-11-03T12:43:16.773Z,6.63
2018-11-03T12:45:45.385Z,6.00
2018-11-03T12:48:19.127Z,6.10
2018-11-03T12:50:47.749Z,5.40
2018-11-03T12:53:21.265Z,6.27
2018-11-03T12:55:50.201Z,6.20
2018-11-03T12:58:24.615Z,9.93
2018-11-03T13:00:53.929Z,9.37
2018-11-03T13:03:26.480Z,9.20
2018-11-03T13:05:54.789Z,13.07
2018-11-03T13:08:28.412Z,12.93
2018-11-03T13:10:57.131Z,10.87
2018-11-03T13:13:30.690Z,8.97
2018-11-03T13:15:59.678Z,8.87
2018-11-03T13:18:32.908Z,9.73
2018-11-03T13:21:01.514Z,8.87
2018-11-03T13:26:05.433Z,10.20
2018-11-03T13:28:39.060Z,7.77
2018-11-03T13:31:07.991Z,9.27
2018-11-03T13:33:41.905Z,9.33
2018-11-03T13:36:10.657Z,8.97
2018-11-03T13:38:44.663Z,9.17
2018-11-03T13:41:13.369Z,6.53
2018-11-03T13:46:15.787Z,6.90
2018-11-03T13:48:56.096Z,6.80
2018-11-03T13:51:24.804Z,5.40
2018-11-03T13:53:54.971Z,7.97
2018-11-03T13:56:23.294Z,6.07
2018-11-03T13:58:57.279Z,7.57
2018-11-03T14:01:25.559Z,5.27
2018-11-03T14:03:56.969Z,7.37
2018-11-03T14:06:28.677Z,6.60
2018-11-03T14:11:31.852Z,5.00
2018-11-03T14:14:04.562Z,6.70
2018-11-03T14:16:33.883Z,5.67
2018-11-03T14:19:02.905Z,7.10
2018-11-03T14:21:31.243Z,5.43
2018-11-03T14:24:00.022Z,6.60
2018-11-03T14:26:28.987Z,5.67
2018-11-03T14:28:57.288Z,5.57
2018-11-03T14:31:25.562Z,5.90
2018-11-03T14:33:54.592Z,5.40
2018-11-03T14:36:23.461Z,6.30
2018-11-03T14:38:52.221Z,5.90
2018-11-03T14:41:25.221Z,6.90
2018-11-03T14:43:53.495Z,7.60
2018-11-03T14:46:25.700Z,7.00
2018-11-03T14:48:54.595Z,8.53
2018-11-03T14:51:28.256Z,7.53
2018-11-03T14:53:56.867Z,8.63
2018-11-03T14:56:29.693Z,8.73
2018-11-03T14:58:58.000Z,8.53
2018-11-03T15:01:31.676Z,8.83
2018-11-03T15:04:00.582Z,8.93
2018-11-03T15:06:34.256Z,9.83
2018-11-03T15:09:02.954Z,11.37
2018-11-03T15:11:32.035Z,14.30
2018-11-03T15:14:00.451Z,14.50
2018-11-03T15:16:29.001Z,16.43
2018-11-03T15:18:57.565Z,20.73
2018-11-03T15:21:25.845Z,15.77
2018-11-03T15:23:54.477Z,15.57
2018-11-03T15:26:28.384Z,11.40
2018-11-03T15:28:57.042Z,11.43
2018-11-03T15:31:29.905Z,13.37
2018-11-03T15:33:58.933Z,12.27
2018-11-03T15:36:31.970Z,12.93
2018-11-03T15:39:03.357Z,10.17
2018-11-03T15:41:36.739Z,9.53
2018-11-03T15:44:06.406Z,10.20
2018-11-03T15:46:38.239Z,10.40
2018-11-03T15:49:06.530Z,10.17
2018-11-03T15:51:40.342Z,12.97
2018-11-03T15:54:10.136Z,10.27
2018-11-03T15:56:51.494Z,10.83
2018-11-03T15:59:20.468Z,10.80
2018-11-03T16:01:49.906Z,11.13
2018-11-03T16:04:18.199Z,13.57
2018-11-03T16:06:48.651Z,13.00
2018-11-03T16:09:17.312Z,14.33
2018-11-03T16:11:50.875Z,13.17
2018-11-03T16:14:19.831Z,15.90
2018-11-03T16:16:53.624Z,10.87
2018-11-03T16:19:22.344Z,9.90
2018-11-03T16:21:57.030Z,9.03
2018-11-03T16:24:25.314Z,8.60
2018-11-03T16:27:00.105Z,9.23
2018-11-03T16:29:28.743Z,8.43
2018-11-03T16:32:02.095Z,10.63
2018-11-03T16:34:30.995Z,11.27
2018-11-03T16:37:09.021Z,11.57
2018-11-03T16:39:37.914Z,12.90
2018-11-03T16:42:08.344Z,11.10
2018-11-03T16:44:36.997Z,13.73
2018-11-03T16:47:10.718Z,15.50
2018-11-03T16:49:39.673Z,17.80
2018-11-03T16:52:13.098Z,13.73
2018-11-03T16:54:42.649Z,10.07
2018-11-03T16:57:15.503Z,14.00
2018-11-03T16:59:44.205Z,11.87
2018-11-03T17:02:17.736Z,13.67
2018-11-03T17:04:46.390Z,22.83
2018-11-03T17:07:22.564Z,20.60
2018-11-03T17:09:51.532Z,11.23
2018-11-03T17:12:22.612Z,12.17
2018-11-03T17:14:50.845Z,9.30
2018-11-03T17:17:25.544Z,10.57
2018-11-03T17:19:54.185Z,11.10
2018-11-03T17:22:28.177Z,14.50
2018-11-03T17:24:58.181Z,27.00
2018-11-03T17:27:30.960Z,19.17
2018-11-03T17:29:59.614Z,15.53
2018-11-03T17:32:33.265Z,16.63
2018-11-03T17:35:01.936Z,14.73
2018-11-03T17:37:36.791Z,14.97
2018-11-03T17:40:06.527Z,12.83
2018-11-03T17:42:39.080Z,12.57
2018-11-03T17:45:09.549Z,14.23
2018-11-03T17:47:40.664Z,14.73
2018-11-03T17:50:09.500Z,15.63
2018-11-03T17:55:15.961Z,15.80
2018-11-03T17:57:49.296Z,13.57
2018-11-03T18:00:17.999Z,12.70
2018-11-03T18:02:49.901Z,12.60
2018-11-03T18:05:18.798Z,10.40
2018-11-03T18:07:52.210Z,9.83
2018-11-03T18:10:20.562Z,11.47
2018-11-03T18:12:54.583Z,11.63
2018-11-03T18:15:24.800Z,11.10
2018-11-03T18:17:58.572Z,12.10
2018-11-03T18:20:27.476Z,12.10
2018-11-03T18:23:08.352Z,12.07
2018-11-03T18:25:37.071Z,13.80
2018-11-03T18:28:06.052Z,13.63
2018-11-03T18:30:35.047Z,13.60
2018-11-03T18:33:06.945Z,13.43
2018-11-03T18:35:38.073Z,13.63
2018-11-03T18:38:11.933Z,13.90
2018-11-03T18:40:40.569Z,13.17
2018-11-03T18:43:11.541Z,11.67
2018-11-03T18:45:40.079Z,12.70
2018-11-03T18:48:13.263Z,12.60
2018-11-03T18:50:42.146Z,15.20
2018-11-03T18:53:20.190Z,13.93
2018-11-03T18:55:50.993Z,15.33
2018-11-03T18:58:19.940Z,15.33
2018-11-03T19:00:48.608Z,14.97
2018-11-03T19:03:32.219Z,15.03
2018-11-03T19:06:00.557Z,12.83
2018-11-03T19:08:28.903Z,16.77
2018-11-03T19:10:57.885Z,16.13
2018-11-03T19:13:27.553Z,19.53
2018-11-03T19:15:55.949Z,19.13
2018-11-03T19:18:32.828Z,20.77
2018-11-03T19:21:01.225Z,19.53
2018-11-03T19:23:32.461Z,20.53
2018-11-03T19:26:00.822Z,18.50
2018-11-03T19:28:42.845Z,16.90
2018-11-03T19:31:11.740Z,15.57
2018-11-03T19:33:40.688Z,19.37
2018-11-03T19:36:09.360Z,15.53
2018-11-03T19:38:40.955Z,20.93
2018-11-03T19:41:10.969Z,19.03
2018-11-03T19:43:52.542Z,20.87
2018-11-03T19:46:21.633Z,15.93
2018-11-03T19:48:50.283Z,13.13
2018-11-03T19:51:19.566Z,11.63
2018-11-03T19:53:47.904Z,12.77
2018-11-03T19:56:16.597Z,11.20
2018-11-03T19:58:49.996Z,19.60
2018-11-03T20:01:18.854Z,12.53
2018-11-03T20:03:54.502Z,13.13
2018-11-03T20:06:25.397Z,14.27
2018-11-03T20:08:58.355Z,13.23
2018-11-03T20:11:26.649Z,13.57
2018-11-03T20:13:59.420Z,11.70
2018-11-03T20:16:28.069Z,12.93
2018-11-03T20:19:02.564Z,11.67
2018-11-03T20:21:31.488Z,11.50
2018-11-03T20:24:15.180Z,10.60
2018-11-03T20:26:43.750Z,11.37
2018-11-03T20:29:12.396Z,10.97
2018-11-03T20:31:41.084Z,11.50
2018-11-03T20:34:14.241Z,10.90
2018-11-03T20:36:42.957Z,11.97
2018-11-03T20:39:13.826Z,11.70
2018-11-03T20:41:43.056Z,11.50
2018-11-03T20:44:16.596Z,11.17
2018-11-03T20:46:46.170Z,10.27
2018-11-03T20:49:27.638Z,9.90
2018-11-03T20:51:56.584Z,9.60
2018-11-03T20:54:26.047Z,10.03
2018-11-03T20:56:54.332Z,10.63
2018-11-03T20:59:24.065Z,10.97
2018-11-03T21:01:52.435Z,10.40
2018-11-03T21:04:25.766Z,11.30
2018-11-03T21:06:54.351Z,10.27
2018-11-03T21:09:31.273Z,9.50
2018-11-03T21:12:00.104Z,9.23
2018-11-03T21:14:30.503Z,9.73
2018-11-03T21:16:59.647Z,9.80
2018-11-03T21:19:32.860Z,9.40
2018-11-03T21:22:01.540Z,10.67
2018-11-03T21:24:34.651Z,11.07
2018-11-03T21:27:04.588Z,11.83
2018-11-03T21:29:40.718Z,11.43
2018-11-03T21:32:09.871Z,12.07
2018-11-03T21:34:41.741Z,11.70
2018-11-03T21:37:10.363Z,11.37
2018-11-03T21:39:44.417Z,10.83
2018-11-03T21:42:12.716Z,11.10
2018-11-03T21:44:45.810Z,10.50
2018-11-03T21:47:15.300Z,10.60
2018-11-03T21:49:48.930Z,9.43
2018-11-03T21:52:17.214Z,9.33
2018-11-03T21:54:51.570Z,10.13
2018-11-03T21:57:20.234Z,10.63
2018-11-03T21:59:53.518Z,10.97
2018-11-03T22:02:22.076Z,10.03
2018-11-03T22:04:56.066Z,10.30
2018-11-03T22:07:24.750Z,10.03
2018-11-03T22:09:58.801Z,10.73
2018-11-03T22:12:27.452Z,10.80
2018-11-03T22:15:01.056Z,10.87
2018-11-03T22:17:29.367Z,11.53
2018-11-03T22:19:57.652Z,11.03
2018-11-03T22:22:25.961Z,11.53
2018-11-03T22:24:55.183Z,11.73
2018-11-03T22:27:23.472Z,9.93
2018-11-03T22:29:53.966Z,10.00
2018-11-03T22:32:22.628Z,11.03
2018-11-03T22:34:50.910Z,11.03
2018-11-03T22:37:19.557Z,11.27
2018-11-03T22:39:48.484Z,11.50
2018-11-03T22:42:18.480Z,11.37
2018-11-03T22:44:48.369Z,11.47
2018-11-03T22:47:20.218Z,11.63
2018-11-03T22:49:48.551Z,12.33
2018-11-03T22:52:30.906Z,11.90
2018-11-03T22:54:59.425Z,12.07
2018-11-03T22:57:28.077Z,12.67
2018-11-03T22:59:57.889Z,13.00
2018-11-03T23:02:26.986Z,14.10
2018-11-03T23:04:55.243Z,14.47
2018-11-03T23:07:28.632Z,13.90
2018-11-03T23:09:57.173Z,14.47
2018-11-03T23:12:30.636Z,15.00
2018-11-03T23:14:58.916Z,15.80
2018-11-03T23:17:32.185Z,18.77
2018-11-03T23:20:00.489Z,19.23
2018-11-03T23:22:29.570Z,15.90
2018-11-03T23:24:58.969Z,17.60
2018-11-03T23:27:27.587Z,16.83
2018-11-03T23:29:56.407Z,16.70
2018-11-03T23:32:25.139Z,17.07
2018-11-03T23:34:53.391Z,19.70
2018-11-03T23:37:21.974Z,19.93
2018-11-03T23:39:50.515Z,18.57
2018-11-03T23:42:20.526Z,16.13
2018-11-03T23:44:49.005Z,24.43
2018-11-03T23:47:18.182Z,20.63
2018-11-03T23:49:51.079Z,20.07
2018-11-03T23:52:24.618Z,22.13
2018-11-03T23:54:53.600Z,19.97
2018-11-03T23:57:23.206Z,17.00
2018-11-03T23:59:56.538Z,19.33
